NKS715 KPHL-KMYR
Flight info
| Callsign | NKS715 |
|---|---|
| Flight time | 1h 7m |
| Altitude | 38000 |
| Route | OOD TEBEE HAYDO TRPOD Q409 CRPLR PAACK WYLMS |
| Aircraft | A20N/M-SDE2E3FGHIRWXY/LB1 |
Departure
| Time | 2026-05-06 02:27 |
|---|---|
| Airport | Philadelphia International Airport (KPHL) |
Arrival
| Time | 2026-05-06 03:34 |
|---|---|
| Airport | Myrtle Beach International Airport (KMYR) |
| Time | Latitude | Longitude | Altitude | Speed | Heading |
|---|---|---|---|---|---|
| 2026-05-06 02:02 | 39.87862 | -75.23767 | 25 ft | 0 kts | 226° |
| 2026-05-06 02:20 | 39.87871 | -75.23755 | 29 ft | 3 kts | 220° |
| 2026-05-06 02:21 | 39.87888 | -75.23740 | 29 ft | 2 kts | 201° |
| 2026-05-06 02:21 | 39.87899 | -75.23736 | 29 ft | 2 kts | 167° |
| 2026-05-06 02:21 | 39.87909 | -75.23743 | 29 ft | 2 kts | 129° |
| 2026-05-06 02:21 | 39.87917 | -75.23758 | 27 ft | 2 kts | 115° |
| 2026-05-06 02:22 | 39.87921 | -75.23771 | 28 ft | 2 kts | 109° |
| 2026-05-06 02:22 | 39.87924 | -75.23784 | 26 ft | 1 kts | 107° |
| 2026-05-06 02:23 | 39.87912 | -75.23733 | 25 ft | 12 kts | 107° |
| 2026-05-06 02:23 | 39.87879 | -75.23609 | 28 ft | 17 kts | 112° |
| 2026-05-06 02:23 | 39.87857 | -75.23455 | 25 ft | 14 kts | 87° |
| 2026-05-06 02:24 | 39.87806 | -75.23399 | 28 ft | 11 kts | 175° |
| 2026-05-06 02:24 | 39.87704 | -75.23361 | 30 ft | 19 kts | 158° |
| 2026-05-06 02:24 | 39.87574 | -75.23297 | 28 ft | 21 kts | 160° |
| 2026-05-06 02:24 | 39.87440 | -75.23231 | 26 ft | 20 kts | 159° |
| 2026-05-06 02:25 | 39.87306 | -75.23164 | 28 ft | 21 kts | 159° |
| 2026-05-06 02:25 | 39.87174 | -75.23099 | 28 ft | 6 kts | 159° |
| 2026-05-06 02:25 | 39.87144 | -75.23108 | 27 ft | 9 kts | 221° |
| 2026-05-06 02:25 | 39.87081 | -75.23207 | 26 ft | 17 kts | 227° |
| 2026-05-06 02:26 | 39.87029 | -75.23355 | 27 ft | 19 kts | 252° |
| 2026-05-06 02:26 | 39.87005 | -75.23410 | 26 ft | 0 kts | 199° |
| 2026-05-06 02:26 | 39.86993 | -75.23414 | 25 ft | 9 kts | 191° |
| 2026-05-06 02:26 | 39.86901 | -75.23419 | 27 ft | 10 kts | 217° |
| 2026-05-06 02:27 | 39.86877 | -75.23527 | 25 ft | 26 kts | 257° |
| 2026-05-06 02:27 | 39.86747 | -75.24184 | 25 ft | 119 kts | 256° |
| 2026-05-06 02:27 | 39.86495 | -75.25505 | 241 ft | 170 kts | 251° |
| 2026-05-06 02:27 | 39.86195 | -75.27072 | 1046 ft | 177 kts | 250° |
| 2026-05-06 02:28 | 39.85915 | -75.28591 | 2269 ft | 169 kts | 246° |
| 2026-05-06 02:28 | 39.85317 | -75.29925 | 3129 ft | 181 kts | 221° |
| 2026-05-06 02:28 | 39.84083 | -75.30622 | 3764 ft | 212 kts | 195° |
| 2026-05-06 02:28 | 39.82510 | -75.30736 | 4460 ft | 238 kts | 185° |
| 2026-05-06 02:29 | 39.80816 | -75.30615 | 5433 ft | 248 kts | 183° |
| 2026-05-06 02:29 | 39.79073 | -75.30477 | 6464 ft | 255 kts | 184° |
| 2026-05-06 02:29 | 39.77277 | -75.30390 | 7400 ft | 261 kts | 184° |
| 2026-05-06 02:29 | 39.75439 | -75.30346 | 8375 ft | 269 kts | 185° |
| 2026-05-06 02:30 | 39.73545 | -75.30332 | 9345 ft | 275 kts | 184° |
| 2026-05-06 02:30 | 39.71599 | -75.30329 | 10241 ft | 284 kts | 184° |
| 2026-05-06 02:30 | 39.69554 | -75.30330 | 10781 ft | 305 kts | 184° |
| 2026-05-06 02:30 | 39.67350 | -75.30331 | 11232 ft | 326 kts | 184° |
| 2026-05-06 02:31 | 39.65056 | -75.30324 | 12054 ft | 332 kts | 183° |
| 2026-05-06 02:31 | 39.62745 | -75.30450 | 13043 ft | 333 kts | 189° |
| 2026-05-06 02:31 | 39.60445 | -75.30867 | 13965 ft | 336 kts | 191° |
| 2026-05-06 02:31 | 39.58119 | -75.31296 | 14813 ft | 339 kts | 191° |
| 2026-05-06 02:32 | 39.55775 | -75.31725 | 15640 ft | 342 kts | 191° |
| 2026-05-06 02:32 | 39.53403 | -75.32156 | 16486 ft | 346 kts | 191° |
| 2026-05-06 02:32 | 39.51007 | -75.32589 | 17292 ft | 350 kts | 192° |
| 2026-05-06 02:32 | 39.48584 | -75.33027 | 18100 ft | 353 kts | 192° |
| 2026-05-06 02:33 | 39.46136 | -75.33470 | 18802 ft | 357 kts | 192° |
| 2026-05-06 02:33 | 39.44501 | -75.33766 | 19257 ft | 359 kts | 192° |
| 2026-05-06 02:33 | 39.38668 | -75.34818 | 20810 ft | 369 kts | 192° |
| 2026-05-06 02:34 | 39.36107 | -75.35278 | 21466 ft | 373 kts | 192° |
| 2026-05-06 02:34 | 39.33526 | -75.35742 | 22094 ft | 377 kts | 193° |
| 2026-05-06 02:34 | 39.30910 | -75.36212 | 22737 ft | 381 kts | 193° |
| 2026-05-06 02:34 | 39.28271 | -75.36686 | 23370 ft | 385 kts | 193° |
| 2026-05-06 02:35 | 39.25596 | -75.37167 | 23909 ft | 390 kts | 193° |
| 2026-05-06 02:35 | 39.22895 | -75.37652 | 24395 ft | 394 kts | 193° |
| 2026-05-06 02:35 | 39.20160 | -75.38144 | 24881 ft | 399 kts | 193° |
| 2026-05-06 02:35 | 39.17397 | -75.38639 | 25360 ft | 403 kts | 193° |
| 2026-05-06 02:36 | 39.14600 | -75.39138 | 25823 ft | 408 kts | 193° |
| 2026-05-06 02:36 | 39.11778 | -75.39641 | 26282 ft | 412 kts | 193° |
| 2026-05-06 02:36 | 39.08920 | -75.40150 | 26728 ft | 416 kts | 193° |
| 2026-05-06 02:36 | 39.06037 | -75.40664 | 27154 ft | 421 kts | 193° |
| 2026-05-06 02:37 | 39.03124 | -75.41182 | 27600 ft | 424 kts | 193° |
| 2026-05-06 02:37 | 39.00185 | -75.41704 | 28017 ft | 428 kts | 193° |
| 2026-05-06 02:37 | 38.97217 | -75.42232 | 28411 ft | 432 kts | 193° |
| 2026-05-06 02:37 | 38.94225 | -75.42763 | 28799 ft | 436 kts | 193° |
| 2026-05-06 02:38 | 38.91206 | -75.43298 | 29175 ft | 440 kts | 193° |
| 2026-05-06 02:38 | 38.88159 | -75.43838 | 29570 ft | 444 kts | 193° |
| 2026-05-06 02:38 | 38.85091 | -75.44382 | 29946 ft | 447 kts | 193° |
| 2026-05-06 02:38 | 38.81992 | -75.44930 | 30259 ft | 451 kts | 193° |
| 2026-05-06 02:39 | 38.78874 | -75.45481 | 30615 ft | 454 kts | 193° |
| 2026-05-06 02:39 | 38.75737 | -75.46034 | 30948 ft | 457 kts | 193° |
| 2026-05-06 02:39 | 38.72579 | -75.46591 | 31318 ft | 458 kts | 193° |
| 2026-05-06 02:39 | 38.69418 | -75.47147 | 31741 ft | 459 kts | 193° |
| 2026-05-06 02:40 | 38.66257 | -75.47703 | 32182 ft | 459 kts | 193° |
| 2026-05-06 02:40 | 38.63094 | -75.48259 | 32597 ft | 459 kts | 193° |
| 2026-05-06 02:40 | 38.59930 | -75.48816 | 33003 ft | 459 kts | 193° |
| 2026-05-06 02:40 | 38.56985 | -75.49333 | 33380 ft | 459 kts | 193° |
| 2026-05-06 02:41 | 38.53819 | -75.49889 | 33766 ft | 460 kts | 193° |
| 2026-05-06 02:41 | 38.50647 | -75.50446 | 34132 ft | 460 kts | 193° |
| 2026-05-06 02:41 | 38.47468 | -75.51004 | 34414 ft | 462 kts | 193° |
| 2026-05-06 02:41 | 38.44324 | -75.51555 | 34685 ft | 463 kts | 193° |
| 2026-05-06 02:42 | 38.41125 | -75.52114 | 34941 ft | 465 kts | 194° |
| 2026-05-06 02:42 | 38.37926 | -75.52718 | 35200 ft | 463 kts | 197° |
| 2026-05-06 02:42 | 38.34830 | -75.53768 | 35446 ft | 457 kts | 206° |
| 2026-05-06 02:42 | 38.31927 | -75.55339 | 35706 ft | 451 kts | 214° |
| 2026-05-06 02:43 | 38.29262 | -75.57375 | 35967 ft | 444 kts | 222° |
| 2026-05-06 02:43 | 38.26721 | -75.59615 | 36240 ft | 444 kts | 222° |
| 2026-05-06 02:43 | 38.24178 | -75.61845 | 36525 ft | 444 kts | 222° |
| 2026-05-06 02:43 | 38.21630 | -75.64068 | 36794 ft | 444 kts | 222° |
| 2026-05-06 02:44 | 38.19079 | -75.66289 | 37073 ft | 444 kts | 223° |
| 2026-05-06 02:44 | 38.16526 | -75.68507 | 37340 ft | 444 kts | 223° |
| 2026-05-06 02:44 | 38.13973 | -75.70723 | 37609 ft | 444 kts | 223° |
| 2026-05-06 02:44 | 38.11424 | -75.72934 | 37875 ft | 444 kts | 223° |
| 2026-05-06 02:45 | 38.08870 | -75.75147 | 38019 ft | 444 kts | 223° |
| 2026-05-06 02:45 | 38.03781 | -75.79552 | 38021 ft | 442 kts | 223° |
| 2026-05-06 02:46 | 37.98695 | -75.83950 | 38022 ft | 443 kts | 223° |
| 2026-05-06 02:46 | 37.93605 | -75.88342 | 38031 ft | 443 kts | 223° |
| 2026-05-06 02:47 | 37.88511 | -75.92730 | 38021 ft | 443 kts | 223° |
| 2026-05-06 02:47 | 37.83445 | -75.97087 | 38028 ft | 443 kts | 223° |
| 2026-05-06 02:48 | 37.78343 | -76.01467 | 38026 ft | 444 kts | 223° |
| 2026-05-06 02:48 | 37.73233 | -76.05846 | 38030 ft | 444 kts | 223° |
| 2026-05-06 02:49 | 37.68116 | -76.10224 | 38029 ft | 444 kts | 223° |
| 2026-05-06 02:49 | 37.63001 | -76.14594 | 38028 ft | 444 kts | 223° |
| 2026-05-06 02:50 | 37.57650 | -76.18625 | 38037 ft | 453 kts | 217° |
| 2026-05-06 02:50 | 37.52076 | -76.22314 | 38021 ft | 452 kts | 217° |
| 2026-05-06 02:51 | 37.46507 | -76.26015 | 38018 ft | 452 kts | 217° |
| 2026-05-06 02:51 | 37.40940 | -76.29712 | 38018 ft | 452 kts | 217° |
| 2026-05-06 02:52 | 37.35370 | -76.33405 | 38025 ft | 453 kts | 217° |
| 2026-05-06 02:52 | 37.29795 | -76.37094 | 38025 ft | 453 kts | 217° |
| 2026-05-06 02:53 | 37.24219 | -76.40778 | 38029 ft | 453 kts | 217° |
| 2026-05-06 02:53 | 37.18635 | -76.44460 | 38032 ft | 453 kts | 218° |
| 2026-05-06 02:54 | 37.13047 | -76.48139 | 38032 ft | 454 kts | 218° |
| 2026-05-06 02:54 | 37.07451 | -76.51817 | 38029 ft | 454 kts | 218° |
| 2026-05-06 02:55 | 37.01849 | -76.55493 | 38024 ft | 455 kts | 218° |
| 2026-05-06 02:55 | 36.96241 | -76.59166 | 38028 ft | 455 kts | 218° |
| 2026-05-06 02:56 | 36.90663 | -76.62814 | 38058 ft | 456 kts | 218° |
| 2026-05-06 02:56 | 36.85040 | -76.66484 | 38063 ft | 456 kts | 218° |
| 2026-05-06 02:57 | 36.79411 | -76.70153 | 38079 ft | 457 kts | 218° |
| 2026-05-06 02:57 | 36.73773 | -76.73822 | 38071 ft | 457 kts | 218° |
| 2026-05-06 02:58 | 36.68174 | -76.77455 | 38072 ft | 455 kts | 218° |
| 2026-05-06 02:58 | 36.62533 | -76.81120 | 38070 ft | 458 kts | 218° |
| 2026-05-06 02:59 | 36.56889 | -76.84772 | 38065 ft | 457 kts | 218° |
| 2026-05-06 02:59 | 36.51239 | -76.88424 | 38061 ft | 458 kts | 218° |
| 2026-05-06 03:00 | 36.45584 | -76.92073 | 38058 ft | 458 kts | 218° |
| 2026-05-06 03:00 | 36.39920 | -76.95722 | 38069 ft | 459 kts | 218° |
| 2026-05-06 03:01 | 36.34254 | -76.99366 | 38081 ft | 459 kts | 218° |
| 2026-05-06 03:01 | 36.28580 | -77.03009 | 38083 ft | 459 kts | 218° |
| 2026-05-06 03:02 | 36.23861 | -77.06035 | 38088 ft | 460 kts | 218° |
| 2026-05-06 03:02 | 36.18177 | -77.09672 | 38078 ft | 459 kts | 218° |
| 2026-05-06 03:03 | 36.12504 | -77.13298 | 38075 ft | 459 kts | 218° |
| 2026-05-06 03:03 | 36.06829 | -77.16919 | 38081 ft | 459 kts | 218° |
| 2026-05-06 03:04 | 36.01152 | -77.20537 | 38089 ft | 459 kts | 217° |
| 2026-05-06 03:04 | 35.95467 | -77.24153 | 38099 ft | 460 kts | 217° |
| 2026-05-06 03:05 | 35.89691 | -77.27617 | 38098 ft | 464 kts | 214° |
| 2026-05-06 03:05 | 35.83834 | -77.30945 | 38096 ft | 464 kts | 215° |
| 2026-05-06 03:06 | 35.77975 | -77.34279 | 38080 ft | 464 kts | 215° |
| 2026-05-06 03:06 | 35.72113 | -77.37607 | 38092 ft | 464 kts | 214° |
| 2026-05-06 03:07 | 35.66249 | -77.40928 | 38096 ft | 464 kts | 214° |
| 2026-05-06 03:07 | 35.60376 | -77.44248 | 38096 ft | 464 kts | 214° |
| 2026-05-06 03:08 | 35.54505 | -77.47561 | 38093 ft | 464 kts | 214° |
| 2026-05-06 03:08 | 35.48630 | -77.50872 | 38091 ft | 464 kts | 214° |
| 2026-05-06 03:09 | 35.42761 | -77.54174 | 38110 ft | 464 kts | 214° |
| 2026-05-06 03:09 | 35.36890 | -77.57472 | 38108 ft | 464 kts | 214° |
| 2026-05-06 03:10 | 35.31023 | -77.60762 | 38107 ft | 464 kts | 214° |
| 2026-05-06 03:10 | 35.28086 | -77.62408 | 37956 ft | 464 kts | 214° |
| 2026-05-06 03:10 | 35.25153 | -77.64050 | 37686 ft | 464 kts | 214° |
| 2026-05-06 03:10 | 35.22260 | -77.65667 | 37424 ft | 463 kts | 214° |
| 2026-05-06 03:11 | 35.19325 | -77.67308 | 37160 ft | 464 kts | 214° |
| 2026-05-06 03:11 | 35.16382 | -77.68953 | 36795 ft | 466 kts | 214° |
| 2026-05-06 03:11 | 35.13421 | -77.70608 | 36091 ft | 470 kts | 214° |
| 2026-05-06 03:11 | 35.10427 | -77.72282 | 35191 ft | 476 kts | 214° |
| 2026-05-06 03:12 | 35.07407 | -77.73965 | 34395 ft | 478 kts | 213° |
| 2026-05-06 03:12 | 35.04370 | -77.75656 | 33550 ft | 480 kts | 213° |
| 2026-05-06 03:12 | 35.01333 | -77.77345 | 32716 ft | 480 kts | 213° |
| 2026-05-06 03:12 | 34.98295 | -77.79035 | 31845 ft | 480 kts | 212° |
| 2026-05-06 03:13 | 34.95262 | -77.80720 | 31113 ft | 477 kts | 212° |
| 2026-05-06 03:13 | 34.92262 | -77.82383 | 30497 ft | 471 kts | 211° |
| 2026-05-06 03:13 | 34.89293 | -77.84028 | 29834 ft | 465 kts | 211° |
| 2026-05-06 03:13 | 34.86370 | -77.85645 | 29212 ft | 458 kts | 211° |
| 2026-05-06 03:14 | 34.83491 | -77.87237 | 28601 ft | 451 kts | 211° |
| 2026-05-06 03:14 | 34.80653 | -77.88805 | 28005 ft | 445 kts | 211° |
| 2026-05-06 03:14 | 34.77855 | -77.90352 | 27408 ft | 439 kts | 211° |
| 2026-05-06 03:14 | 34.75095 | -77.91877 | 26818 ft | 433 kts | 211° |
| 2026-05-06 03:15 | 34.72367 | -77.93383 | 26226 ft | 428 kts | 211° |
| 2026-05-06 03:15 | 34.69667 | -77.94873 | 25651 ft | 424 kts | 210° |
| 2026-05-06 03:15 | 34.66992 | -77.96349 | 25039 ft | 421 kts | 210° |
| 2026-05-06 03:15 | 34.64342 | -77.97808 | 24455 ft | 417 kts | 210° |
| 2026-05-06 03:16 | 34.61713 | -77.99255 | 23887 ft | 413 kts | 210° |
| 2026-05-06 03:16 | 34.59224 | -78.00625 | 23315 ft | 409 kts | 210° |
| 2026-05-06 03:16 | 34.56648 | -78.02040 | 22745 ft | 404 kts | 209° |
| 2026-05-06 03:16 | 34.54107 | -78.03436 | 22178 ft | 398 kts | 209° |
| 2026-05-06 03:17 | 34.51596 | -78.04814 | 21619 ft | 394 kts | 209° |
| 2026-05-06 03:17 | 34.49115 | -78.06175 | 21062 ft | 389 kts | 208° |
| 2026-05-06 03:17 | 34.46663 | -78.07520 | 20511 ft | 385 kts | 208° |
| 2026-05-06 03:17 | 34.44233 | -78.08852 | 19965 ft | 382 kts | 208° |
| 2026-05-06 03:18 | 34.41825 | -78.10171 | 19438 ft | 378 kts | 208° |
| 2026-05-06 03:18 | 34.39428 | -78.11484 | 18870 ft | 376 kts | 207° |
| 2026-05-06 03:18 | 34.37050 | -78.12785 | 18285 ft | 375 kts | 207° |
| 2026-05-06 03:18 | 34.34691 | -78.14073 | 17755 ft | 370 kts | 207° |
| 2026-05-06 03:19 | 34.32361 | -78.15344 | 17170 ft | 366 kts | 207° |
| 2026-05-06 03:19 | 34.30027 | -78.16617 | 16526 ft | 366 kts | 207° |
| 2026-05-06 03:19 | 34.27721 | -78.17873 | 16033 ft | 361 kts | 207° |
| 2026-05-06 03:19 | 34.25475 | -78.19096 | 15517 ft | 357 kts | 207° |
| 2026-05-06 03:20 | 34.20985 | -78.21541 | 14483 ft | 351 kts | 207° |
| 2026-05-06 03:20 | 34.18769 | -78.22745 | 13942 ft | 348 kts | 207° |
| 2026-05-06 03:20 | 34.16569 | -78.23941 | 13429 ft | 344 kts | 207° |
| 2026-05-06 03:21 | 34.14397 | -78.25121 | 12936 ft | 340 kts | 207° |
| 2026-05-06 03:21 | 34.12261 | -78.26305 | 12445 ft | 335 kts | 210° |
| 2026-05-06 03:21 | 34.10425 | -78.27958 | 11965 ft | 327 kts | 228° |
| 2026-05-06 03:21 | 34.09131 | -78.30169 | 11482 ft | 321 kts | 245° |
| 2026-05-06 03:22 | 34.08297 | -78.32654 | 11025 ft | 318 kts | 249° |
| 2026-05-06 03:22 | 34.07503 | -78.35127 | 10557 ft | 315 kts | 249° |
| 2026-05-06 03:22 | 34.06716 | -78.37564 | 10281 ft | 306 kts | 249° |
| 2026-05-06 03:22 | 34.05958 | -78.39897 | 10156 ft | 292 kts | 249° |
| 2026-05-06 03:23 | 34.05225 | -78.42148 | 9860 ft | 285 kts | 248° |
| 2026-05-06 03:23 | 34.04510 | -78.44340 | 9708 ft | 279 kts | 248° |
| 2026-05-06 03:23 | 34.03793 | -78.46531 | 9577 ft | 282 kts | 248° |
| 2026-05-06 03:23 | 34.03071 | -78.48739 | 9261 ft | 284 kts | 248° |
| 2026-05-06 03:24 | 34.02349 | -78.50945 | 8905 ft | 281 kts | 248° |
| 2026-05-06 03:24 | 34.01635 | -78.53126 | 8555 ft | 278 kts | 248° |
| 2026-05-06 03:24 | 34.00932 | -78.55274 | 8209 ft | 274 kts | 248° |
| 2026-05-06 03:24 | 34.00237 | -78.57391 | 7869 ft | 270 kts | 248° |
| 2026-05-06 03:25 | 33.99550 | -78.59480 | 7530 ft | 267 kts | 247° |
| 2026-05-06 03:25 | 33.98873 | -78.61543 | 7195 ft | 264 kts | 247° |
| 2026-05-06 03:25 | 33.98203 | -78.63587 | 6863 ft | 261 kts | 247° |
| 2026-05-06 03:25 | 33.97539 | -78.65613 | 6533 ft | 259 kts | 247° |
| 2026-05-06 03:26 | 33.96880 | -78.67618 | 6189 ft | 256 kts | 247° |
| 2026-05-06 03:26 | 33.96229 | -78.69595 | 5863 ft | 253 kts | 246° |
| 2026-05-06 03:26 | 33.95585 | -78.71554 | 5545 ft | 250 kts | 246° |
| 2026-05-06 03:26 | 33.94955 | -78.73464 | 5229 ft | 247 kts | 246° |
| 2026-05-06 03:27 | 33.94324 | -78.75379 | 4912 ft | 245 kts | 246° |
| 2026-05-06 03:27 | 33.93698 | -78.77276 | 4589 ft | 242 kts | 246° |
| 2026-05-06 03:27 | 33.93080 | -78.79151 | 4270 ft | 240 kts | 245° |
| 2026-05-06 03:27 | 33.92467 | -78.81010 | 3966 ft | 238 kts | 245° |
| 2026-05-06 03:28 | 33.91859 | -78.82853 | 3660 ft | 236 kts | 245° |
| 2026-05-06 03:28 | 33.91255 | -78.84683 | 3359 ft | 235 kts | 244° |
| 2026-05-06 03:28 | 33.90653 | -78.86502 | 3050 ft | 233 kts | 244° |
| 2026-05-06 03:28 | 33.90053 | -78.88310 | 2746 ft | 232 kts | 244° |
| 2026-05-06 03:29 | 33.89456 | -78.90109 | 2441 ft | 231 kts | 244° |
| 2026-05-06 03:29 | 33.88862 | -78.91900 | 2146 ft | 230 kts | 244° |
| 2026-05-06 03:29 | 33.88258 | -78.93712 | 2013 ft | 243 kts | 244° |
| 2026-05-06 03:29 | 33.87593 | -78.95544 | 1976 ft | 230 kts | 233° |
| 2026-05-06 03:30 | 33.86490 | -78.96757 | 1980 ft | 205 kts | 203° |
| 2026-05-06 03:30 | 33.85178 | -78.97089 | 1983 ft | 186 kts | 176° |
| 2026-05-06 03:30 | 33.83888 | -78.96816 | 1984 ft | 190 kts | 169° |
| 2026-05-06 03:30 | 33.82608 | -78.96501 | 1987 ft | 187 kts | 169° |
| 2026-05-06 03:31 | 33.81332 | -78.96181 | 1985 ft | 187 kts | 169° |
| 2026-05-06 03:31 | 33.80052 | -78.95860 | 1997 ft | 189 kts | 169° |
| 2026-05-06 03:31 | 33.78774 | -78.95539 | 1966 ft | 188 kts | 169° |
| 2026-05-06 03:31 | 33.77498 | -78.95219 | 1726 ft | 187 kts | 169° |
| 2026-05-06 03:32 | 33.76264 | -78.94909 | 1472 ft | 174 kts | 169° |
| 2026-05-06 03:32 | 33.75148 | -78.94628 | 1254 ft | 155 kts | 169° |
| 2026-05-06 03:32 | 33.74153 | -78.94378 | 1059 ft | 136 kts | 169° |
| 2026-05-06 03:32 | 33.73286 | -78.94161 | 866 ft | 120 kts | 169° |
| 2026-05-06 03:33 | 33.72482 | -78.93960 | 715 ft | 122 kts | 168° |
| 2026-05-06 03:33 | 33.71633 | -78.93748 | 546 ft | 125 kts | 168° |
| 2026-05-06 03:33 | 33.70782 | -78.93534 | 374 ft | 125 kts | 168° |
| 2026-05-06 03:33 | 33.69937 | -78.93330 | 203 ft | 124 kts | 167° |
| 2026-05-06 03:34 | 33.69099 | -78.93114 | 68 ft | 123 kts | 168° |
| 2026-05-06 03:34 | 33.68317 | -78.92921 | 32 ft | 106 kts | 167° |
| 2026-05-06 03:34 | 33.67704 | -78.92759 | 30 ft | 55 kts | 165° |
| 2026-05-06 03:34 | 33.67517 | -78.92618 | 27 ft | 31 kts | 139° |
| 2026-05-06 03:35 | 33.67366 | -78.92456 | 28 ft | 17 kts | 134° |
| 2026-05-06 03:35 | 33.67345 | -78.92374 | 27 ft | 2 kts | 77° |
| 2026-05-06 03:35 | 33.67406 | -78.92332 | 27 ft | 11 kts | 342° |
| 2026-05-06 03:35 | 33.67544 | -78.92377 | 28 ft | 25 kts | 348° |
| 2026-05-06 03:36 | 33.67730 | -78.92433 | 28 ft | 29 kts | 336° |
| 2026-05-06 03:36 | 33.67903 | -78.92524 | 30 ft | 9 kts | 345° |
| 2026-05-06 03:36 | 33.67968 | -78.92533 | 31 ft | 11 kts | 13° |
| 2026-05-06 03:36 | 33.67996 | -78.92472 | 31 ft | 0 kts | 79° |